Terminal Aerodrome Forecast
Issued by NWS Jackson, KY

Home | Current Version | Previous Version | Text Only | Print | Product List | Glossary On
Versions: 1 2 3 4 5 6 7 8 9 10 11 12 13
059
FTUS43 KJKL 030539
TAFLOZ
TAF
KLOZ 030539Z 0306/0406 17010G18KT 4SM SHRA OVC050
     FM030800 20011G25KT 2SM +SHRA OVC020
     FM031500 24010KT P6SM -SHRA BKN030
     FM031700 25012G20KT P6SM VCSH SCT035
     FM040000 27008KT P6SM SKC=

USA.gov is the U.S. government's official web portal to all federal, state and local government web resources and services.